sensor_id;sensor_type;location;lat;lon;timestamp;pressure;altitude;pressure_sealevel;temperature;humidity
2549;BME280;1284;53.520;10.248;2022-11-04T00:01:45;99388.00;;;13.49;87.31
2549;BME280;1284;53.520;10.248;2022-11-04T00:04:12;99377.72;;;13.37;87.79
2549;BME280;1284;53.520;10.248;2022-11-04T00:06:38;99372.72;;;13.35;88.66
2549;BME280;1284;53.520;10.248;2022-11-04T00:09:07;99373.25;;;13.53;87.93
2549;BME280;1284;53.520;10.248;2022-11-04T00:11:32;99362.38;;;13.57;87.52
2549;BME280;1284;53.520;10.248;2022-11-04T00:14:17;99366.53;;;13.65;87.48
2549;BME280;1284;53.520;10.248;2022-11-04T00:16:43;99380.88;;;13.62;87.68
2549;BME280;1284;53.520;10.248;2022-11-04T00:19:30;99367.84;;;13.53;88.12
2549;BME280;1284;53.520;10.248;2022-11-04T00:22:18;99363.22;;;13.20;89.80
2549;BME280;1284;53.520;10.248;2022-11-04T00:25:10;99359.88;;;13.43;89.14
2549;BME280;1284;53.520;10.248;2022-11-04T00:28:20;99351.66;;;13.50;88.93
2549;BME280;1284;53.520;10.248;2022-11-04T00:31:06;99352.84;;;13.49;89.39
2549;BME280;1284;53.520;10.248;2022-11-04T00:33:52;99340.44;;;13.51;89.56
2549;BME280;1284;53.520;10.248;2022-11-04T00:36:18;99349.22;;;13.59;89.33
2549;BME280;1284;53.520;10.248;2022-11-04T00:38:43;99352.28;;;13.61;89.20
2549;BME280;1284;53.520;10.248;2022-11-04T00:41:09;99357.00;;;13.53;88.99
2549;BME280;1284;53.520;10.248;2022-11-04T00:43:59;99369.09;;;13.45;90.32
2549;BME280;1284;53.520;10.248;2022-11-04T00:46:26;99374.13;;;13.47;90.90
2549;BME280;1284;53.520;10.248;2022-11-04T00:48:51;99363.09;;;13.61;89.88
2549;BME280;1284;53.520;10.248;2022-11-04T00:51:17;99349.69;;;13.54;90.08
2549;BME280;1284;53.520;10.248;2022-11-04T00:53:44;99357.75;;;13.57;89.75
2549;BME280;1284;53.520;10.248;2022-11-04T00:56:09;99342.38;;;13.51;90.26
2549;BME280;1284;53.520;10.248;2022-11-04T00:58:35;99339.56;;;13.58;90.37
2549;BME280;1284;53.520;10.248;2022-11-04T01:01:06;99342.19;;;13.65;89.94
2549;BME280;1284;53.520;10.248;2022-11-04T01:03:32;99343.63;;;13.73;89.27
2549;BME280;1284;53.520;10.248;2022-11-04T01:05:57;99341.75;;;13.70;89.67
2549;BME280;1284;53.520;10.248;2022-11-04T01:08:22;99330.19;;;13.66;89.80
2549;BME280;1284;53.520;10.248;2022-11-04T01:10:48;99330.16;;;13.70;89.64
2549;BME280;1284;53.520;10.248;2022-11-04T01:13:13;99330.56;;;13.68;89.93
2549;BME280;1284;53.520;10.248;2022-11-04T01:15:39;99322.25;;;13.52;90.53
2549;BME280;1284;53.520;10.248;2022-11-04T01:18:05;99313.72;;;13.27;92.18
2549;BME280;1284;53.520;10.248;2022-11-04T01:20:31;99308.44;;;13.46;91.91
2549;BME280;1284;53.520;10.248;2022-11-04T01:22:57;99310.00;;;13.44;91.61
2549;BME280;1284;53.520;10.248;2022-11-04T01:25:22;99309.69;;;13.38;92.18
2549;BME280;1284;53.520;10.248;2022-11-04T01:27:48;99312.22;;;13.52;92.09
2549;BME280;1284;53.520;10.248;2022-11-04T01:30:13;99309.75;;;13.35;92.22
2549;BME280;1284;53.520;10.248;2022-11-04T01:32:39;99316.19;;;13.44;93.03
2549;BME280;1284;53.520;10.248;2022-11-04T01:35:05;99308.50;;;13.43;92.79
2549;BME280;1284;53.520;10.248;2022-11-04T01:37:30;99319.91;;;13.54;92.22
2549;BME280;1284;53.520;10.248;2022-11-04T01:39:55;99316.50;;;13.50;92.54
2549;BME280;1284;53.520;10.248;2022-11-04T01:42:21;99305.97;;;13.55;92.07
2549;BME280;1284;53.520;10.248;2022-11-04T01:44:53;99313.19;;;13.66;91.33
2549;BME280;1284;53.520;10.248;2022-11-04T01:47:24;99306.88;;;13.76;91.21
2549;BME280;1284;53.520;10.248;2022-11-04T01:49:52;99304.31;;;13.65;91.33
2549;BME280;1284;53.520;10.248;2022-11-04T01:52:25;99301.84;;;13.47;92.31
2549;BME280;1284;53.520;10.248;2022-11-04T01:54:54;99300.09;;;13.34;92.77
2549;BME280;1284;53.520;10.248;2022-11-04T01:57:29;99299.97;;;13.44;92.81
2549;BME280;1284;53.520;10.248;2022-11-04T02:00:00;99314.34;;;13.38;92.66
2549;BME280;1284;53.520;10.248;2022-11-04T02:02:25;99304.53;;;13.47;92.04
2549;BME280;1284;53.520;10.248;2022-11-04T02:04:51;99302.91;;;13.27;93.25
2549;BME280;1284;53.520;10.248;2022-11-04T02:07:16;99297.13;;;13.25;93.78
2549;BME280;1284;53.520;10.248;2022-11-04T02:09:42;99296.91;;;13.42;92.85
2549;BME280;1284;53.520;10.248;2022-11-04T02:12:08;99285.19;;;13.52;92.54
2549;BME280;1284;53.520;10.248;2022-11-04T02:14:53;99296.06;;;13.45;92.17
2549;BME280;1284;53.520;10.248;2022-11-04T02:22:56;99288.44;;;13.40;93.34
2549;BME280;1284;53.520;10.248;2022-11-04T02:33:53;99308.44;;;13.46;93.78
2549;BME280;1284;53.520;10.248;2022-11-04T02:39:27;99314.31;;;13.68;93.52
2549;BME280;1284;53.520;10.248;2022-11-04T02:42:14;99299.84;;;13.51;94.82
2549;BME280;1284;53.520;10.248;2022-11-04T02:45:01;99305.25;;;13.51;94.94
2549;BME280;1284;53.520;10.248;2022-11-04T02:47:35;99309.91;;;13.21;97.40
2549;BME280;1284;53.520;10.248;2022-11-04T02:50:09;99296.19;;;13.08;98.51
2549;BME280;1284;53.520;10.248;2022-11-04T02:52:40;99304.50;;;13.21;98.56
2549;BME280;1284;53.520;10.248;2022-11-04T02:55:28;99302.91;;;13.27;99.02
2549;BME280;1284;53.520;10.248;2022-11-04T02:57:58;99312.66;;;13.17;99.60
2549;BME280;1284;53.520;10.248;2022-11-04T03:00:25;99323.06;;;13.19;100.00
2549;BME280;1284;53.520;10.248;2022-11-04T03:02:56;99319.75;;;13.08;100.00
2549;BME280;1284;53.520;10.248;2022-11-04T03:05:32;99317.75;;;13.12;100.00
2549;BME280;1284;53.520;10.248;2022-11-04T03:08:02;99333.47;;;13.20;100.00
2549;BME280;1284;53.520;10.248;2022-11-04T03:10:38;99326.09;;;13.24;100.00
2549;BME280;1284;53.520;10.248;2022-11-04T03:15:44;99322.44;;;13.08;100.00
2549;BME280;1284;53.520;10.248;2022-11-04T03:20:57;99329.75;;;13.41;100.00
2549;BME280;1284;53.520;10.248;2022-11-04T03:23:25;99328.53;;;13.15;100.00
2549;BME280;1284;53.520;10.248;2022-11-04T03:25:53;99321.16;;;13.19;100.00
2549;BME280;1284;53.520;10.248;2022-11-04T03:28:26;99328.13;;;13.17;100.00
2549;BME280;1284;53.520;10.248;2022-11-04T03:30:58;99321.78;;;12.59;100.00
2549;BME280;1284;53.520;10.248;2022-11-04T03:38:51;99332.06;;;13.12;100.00
2549;BME280;1284;53.520;10.248;2022-11-04T03:41:37;99317.16;;;12.94;100.00
2549;BME280;1284;53.520;10.248;2022-11-04T03:44:04;99319.09;;;12.93;100.00
2549;BME280;1284;53.520;10.248;2022-11-04T03:46:30;99324.63;;;12.83;100.00
2549;BME280;1284;53.520;10.248;2022-11-04T03:48:57;99338.00;;;12.93;100.00
2549;BME280;1284;53.520;10.248;2022-11-04T03:51:23;99324.31;;;13.11;100.00
2549;BME280;1284;53.520;10.248;2022-11-04T03:53:49;99331.19;;;13.19;100.00
2549;BME280;1284;53.520;10.248;2022-11-04T04:01:56;99318.72;;;12.91;100.00
2549;BME280;1284;53.520;10.248;2022-11-04T04:07:17;99313.34;;;13.25;100.00
2549;BME280;1284;53.520;10.248;2022-11-04T04:09:49;99322.97;;;13.26;100.00
2549;BME280;1284;53.520;10.248;2022-11-04T04:12:25;99330.13;;;13.43;100.00
2549;BME280;1284;53.520;10.248;2022-11-04T04:15:12;99328.16;;;13.43;100.00
2549;BME280;1284;53.520;10.248;2022-11-04T04:18:05;99337.19;;;13.33;100.00
2549;BME280;1284;53.520;10.248;2022-11-04T04:20:34;99334.13;;;13.31;100.00
2549;BME280;1284;53.520;10.248;2022-11-04T04:23:31;99343.53;;;13.20;100.00
2549;BME280;1284;53.520;10.248;2022-11-04T04:26:18;99349.75;;;13.17;100.00
2549;BME280;1284;53.520;10.248;2022-11-04T04:29:05;99349.91;;;12.99;100.00
2549;BME280;1284;53.520;10.248;2022-11-04T04:31:32;99362.91;;;13.15;100.00
2549;BME280;1284;53.520;10.248;2022-11-04T04:34:20;99373.66;;;13.22;100.00
2549;BME280;1284;53.520;10.248;2022-11-04T04:36:56;99377.91;;;13.19;100.00
2549;BME280;1284;53.520;10.248;2022-11-04T04:39:26;99379.69;;;13.33;100.00
2549;BME280;1284;53.520;10.248;2022-11-04T04:42:11;99385.34;;;13.12;100.00
2549;BME280;1284;53.520;10.248;2022-11-04T04:44:55;99370.59;;;13.16;100.00
2549;BME280;1284;53.520;10.248;2022-11-04T04:47:26;99384.31;;;13.32;100.00
2549;BME280;1284;53.520;10.248;2022-11-04T04:49:57;99387.38;;;13.34;100.00
2549;BME280;1284;53.520;10.248;2022-11-04T04:52:26;99395.56;;;13.31;100.00
2549;BME280;1284;53.520;10.248;2022-11-04T04:54:52;99406.03;;;13.25;100.00
2549;BME280;1284;53.520;10.248;2022-11-04T04:57:18;99408.56;;;13.43;100.00
2549;BME280;1284;53.520;10.248;2022-11-04T04:59:43;99405.03;;;13.46;100.00
2549;BME280;1284;53.520;10.248;2022-11-04T05:02:09;99402.78;;;13.41;100.00
2549;BME280;1284;53.520;10.248;2022-11-04T05:04:34;99419.38;;;13.43;100.00
2549;BME280;1284;53.520;10.248;2022-11-04T05:07:00;99427.47;;;13.43;100.00
2549;BME280;1284;53.520;10.248;2022-11-04T05:09:25;99421.78;;;13.34;100.00
2549;BME280;1284;53.520;10.248;2022-11-04T05:11:50;99417.22;;;13.27;100.00
2549;BME280;1284;53.520;10.248;2022-11-04T05:14:16;99418.41;;;13.23;100.00
2549;BME280;1284;53.520;10.248;2022-11-04T05:16:41;99423.78;;;13.26;100.00
2549;BME280;1284;53.520;10.248;2022-11-04T05:19:07;99433.63;;;13.47;100.00
2549;BME280;1284;53.520;10.248;2022-11-04T05:21:32;99421.81;;;13.30;100.00
2549;BME280;1284;53.520;10.248;2022-11-04T05:23:57;99428.41;;;13.26;100.00
2549;BME280;1284;53.520;10.248;2022-11-04T05:26:23;99440.38;;;13.28;100.00
2549;BME280;1284;53.520;10.248;2022-11-04T05:28:48;99435.78;;;13.25;100.00
2549;BME280;1284;53.520;10.248;2022-11-04T05:31:13;99439.19;;;13.33;100.00
2549;BME280;1284;53.520;10.248;2022-11-04T05:33:39;99440.63;;;13.41;100.00
2549;BME280;1284;53.520;10.248;2022-11-04T05:36:10;99441.75;;;13.47;100.00
2549;BME280;1284;53.520;10.248;2022-11-04T05:38:36;99452.91;;;13.49;100.00
2549;BME280;1284;53.520;10.248;2022-11-04T05:41:02;99462.28;;;13.41;100.00
2549;BME280;1284;53.520;10.248;2022-11-04T05:43:27;99469.47;;;13.54;100.00
2549;BME280;1284;53.520;10.248;2022-11-04T05:45:53;99471.84;;;13.49;100.00
2549;BME280;1284;53.520;10.248;2022-11-04T05:48:19;99472.97;;;13.51;99.79
2549;BME280;1284;53.520;10.248;2022-11-04T05:50:44;99464.28;;;13.67;100.00
2549;BME280;1284;53.520;10.248;2022-11-04T05:53:10;99474.00;;;13.61;99.77
2549;BME280;1284;53.520;10.248;2022-11-04T05:55:35;99474.31;;;13.70;99.65
2549;BME280;1284;53.520;10.248;2022-11-04T05:58:00;99480.47;;;13.71;99.09
2549;BME280;1284;53.520;10.248;2022-11-04T06:00:26;99485.66;;;13.58;99.28
2549;BME280;1284;53.520;10.248;2022-11-04T06:02:53;99492.22;;;13.57;99.20
2549;BME280;1284;53.520;10.248;2022-11-04T06:05:21;99498.31;;;13.68;98.79
2549;BME280;1284;53.520;10.248;2022-11-04T06:07:46;99504.09;;;13.67;98.33
2549;BME280;1284;53.520;10.248;2022-11-04T06:10:12;99501.88;;;13.58;98.55
2549;BME280;1284;53.520;10.248;2022-11-04T06:12:37;99513.41;;;13.66;98.72
2549;BME280;1284;53.520;10.248;2022-11-04T06:15:03;99503.41;;;13.63;98.10
2549;BME280;1284;53.520;10.248;2022-11-04T06:17:28;99508.41;;;13.64;98.01
2549;BME280;1284;53.520;10.248;2022-11-04T06:19:54;99511.09;;;13.64;98.15
2549;BME280;1284;53.520;10.248;2022-11-04T06:22:19;99518.00;;;13.69;97.72
2549;BME280;1284;53.520;10.248;2022-11-04T06:24:45;99529.22;;;13.67;97.56
2549;BME280;1284;53.520;10.248;2022-11-04T06:27:11;99528.44;;;13.70;97.68
2549;BME280;1284;53.520;10.248;2022-11-04T06:29:37;99529.94;;;13.71;97.65
2549;BME280;1284;53.520;10.248;2022-11-04T06:32:11;99535.44;;;13.64;97.56
2549;BME280;1284;53.520;10.248;2022-11-04T06:34:37;99536.72;;;13.52;97.38
2549;BME280;1284;53.520;10.248;2022-11-04T06:37:03;99542.38;;;13.65;97.62
2549;BME280;1284;53.520;10.248;2022-11-04T06:39:31;99549.56;;;13.45;98.09
2549;BME280;1284;53.520;10.248;2022-11-04T06:41:57;99548.66;;;13.55;97.93
2549;BME280;1284;53.520;10.248;2022-11-04T06:44:22;99550.50;;;13.65;97.81
2549;BME280;1284;53.520;10.248;2022-11-04T06:46:48;99554.75;;;13.66;96.98
2549;BME280;1284;53.520;10.248;2022-11-04T06:49:19;99558.25;;;13.63;96.79
2549;BME280;1284;53.520;10.248;2022-11-04T06:51:46;99552.41;;;13.68;96.90
2549;BME280;1284;53.520;10.248;2022-11-04T06:54:12;99564.41;;;13.67;96.43
2549;BME280;1284;53.520;10.248;2022-11-04T06:56:38;99574.06;;;13.68;96.73
2549;BME280;1284;53.520;10.248;2022-11-04T06:59:04;99564.84;;;13.62;96.19
2549;BME280;1284;53.520;10.248;2022-11-04T07:01:34;99566.41;;;13.59;96.14
2549;BME280;1284;53.520;10.248;2022-11-04T07:04:00;99573.38;;;13.61;95.95
2549;BME280;1284;53.520;10.248;2022-11-04T07:06:27;99570.88;;;13.36;96.57
2549;BME280;1284;53.520;10.248;2022-11-04T07:09:00;99569.72;;;13.37;96.55
2549;BME280;1284;53.520;10.248;2022-11-04T07:11:28;99586.19;;;13.49;95.26
2549;BME280;1284;53.520;10.248;2022-11-04T07:13:54;99590.50;;;13.47;96.22
2549;BME280;1284;53.520;10.248;2022-11-04T07:16:19;99592.75;;;13.52;96.25
2549;BME280;1284;53.520;10.248;2022-11-04T07:18:45;99585.75;;;13.58;95.34
2549;BME280;1284;53.520;10.248;2022-11-04T07:21:12;99602.47;;;13.46;96.02
2549;BME280;1284;53.520;10.248;2022-11-04T07:23:37;99607.81;;;13.53;95.67
2549;BME280;1284;53.520;10.248;2022-11-04T07:26:05;99610.97;;;13.44;95.98
2549;BME280;1284;53.520;10.248;2022-11-04T07:28:32;99612.06;;;13.54;94.74
2549;BME280;1284;53.520;10.248;2022-11-04T07:30:58;99618.69;;;13.46;95.26
2549;BME280;1284;53.520;10.248;2022-11-04T07:33:25;99623.06;;;13.33;95.49
2549;BME280;1284;53.520;10.248;2022-11-04T07:35:52;99630.78;;;13.31;95.87
2549;BME280;1284;53.520;10.248;2022-11-04T07:38:18;99633.81;;;13.40;95.89
2549;BME280;1284;53.520;10.248;2022-11-04T07:40:44;99628.41;;;13.40;95.98
2549;BME280;1284;53.520;10.248;2022-11-04T07:43:09;99633.78;;;13.43;95.39
2549;BME280;1284;53.520;10.248;2022-11-04T07:45:36;99638.97;;;13.20;96.04
2549;BME280;1284;53.520;10.248;2022-11-04T07:48:02;99652.13;;;13.18;96.48
2549;BME280;1284;53.520;10.248;2022-11-04T07:50:27;99639.25;;;13.36;95.92
2549;BME280;1284;53.520;10.248;2022-11-04T07:52:52;99621.00;;;13.47;95.02
2549;BME280;1284;53.520;10.248;2022-11-04T07:55:18;99629.63;;;13.32;94.60
2549;BME280;1284;53.520;10.248;2022-11-04T07:57:44;99625.69;;;13.40;95.07
2549;BME280;1284;53.520;10.248;2022-11-04T08:00:10;99631.81;;;13.51;94.20
2549;BME280;1284;53.520;10.248;2022-11-04T08:02:40;99633.41;;;13.45;94.26
2549;BME280;1284;53.520;10.248;2022-11-04T08:05:06;99635.25;;;13.51;94.35
2549;BME280;1284;53.520;10.248;2022-11-04T08:07:31;99636.34;;;13.61;93.77
2549;BME280;1284;53.520;10.248;2022-11-04T08:09:57;99640.97;;;13.64;93.40
2549;BME280;1284;53.520;10.248;2022-11-04T08:12:22;99637.63;;;13.46;93.11
2549;BME280;1284;53.520;10.248;2022-11-04T08:14:49;99642.97;;;13.53;93.37
2549;BME280;1284;53.520;10.248;2022-11-04T08:17:15;99651.69;;;13.27;94.12
2549;BME280;1284;53.520;10.248;2022-11-04T08:19:40;99653.56;;;13.33;94.45
2549;BME280;1284;53.520;10.248;2022-11-04T08:22:06;99653.94;;;13.35;94.09
2549;BME280;1284;53.520;10.248;2022-11-04T08:24:32;99655.38;;;13.50;93.83
2549;BME280;1284;53.520;10.248;2022-11-04T08:26:58;99657.38;;;13.39;94.07
2549;BME280;1284;53.520;10.248;2022-11-04T08:29:23;99652.56;;;13.61;93.46
2549;BME280;1284;53.520;10.248;2022-11-04T08:31:49;99652.16;;;13.66;92.47
2549;BME280;1284;53.520;10.248;2022-11-04T08:34:14;99649.78;;;13.72;92.29
2549;BME280;1284;53.520;10.248;2022-11-04T08:36:43;99660.19;;;13.73;91.69
2549;BME280;1284;53.520;10.248;2022-11-04T08:39:08;99666.31;;;13.81;91.61
2549;BME280;1284;53.520;10.248;2022-11-04T08:41:34;99669.31;;;13.49;91.98
2549;BME280;1284;53.520;10.248;2022-11-04T08:44:02;99663.72;;;13.67;91.71
2549;BME280;1284;53.520;10.248;2022-11-04T08:46:32;99672.31;;;13.58;92.00
2549;BME280;1284;53.520;10.248;2022-11-04T08:48:58;99687.00;;;13.61;91.87
2549;BME280;1284;53.520;10.248;2022-11-04T08:51:25;99676.19;;;13.57;91.79
2549;BME280;1284;53.520;10.248;2022-11-04T08:53:51;99690.13;;;13.52;91.99
2549;BME280;1284;53.520;10.248;2022-11-04T08:56:18;99681.84;;;13.73;91.89
2549;BME280;1284;53.520;10.248;2022-11-04T08:58:44;99686.47;;;13.76;91.36
2549;BME280;1284;53.520;10.248;2022-11-04T09:01:09;99690.78;;;13.67;91.68
2549;BME280;1284;53.520;10.248;2022-11-04T09:03:36;99688.44;;;13.69;91.38
2549;BME280;1284;53.520;10.248;2022-11-04T09:06:12;99688.44;;;13.69;91.33
2549;BME280;1284;53.520;10.248;2022-11-04T09:08:38;99682.88;;;13.86;91.11
2549;BME280;1284;53.520;10.248;2022-11-04T09:11:09;99689.50;;;13.85;91.14
2549;BME280;1284;53.520;10.248;2022-11-04T09:13:35;99696.00;;;13.91;90.81
2549;BME280;1284;53.520;10.248;2022-11-04T09:16:01;99699.19;;;13.79;90.85
2549;BME280;1284;53.520;10.248;2022-11-04T09:18:27;99700.72;;;13.84;90.18
2549;BME280;1284;53.520;10.248;2022-11-04T09:20:54;99703.69;;;13.96;89.74
2549;BME280;1284;53.520;10.248;2022-11-04T09:23:19;99704.88;;;13.92;89.24
2549;BME280;1284;53.520;10.248;2022-11-04T09:25:44;99703.56;;;14.10;89.17
2549;BME280;1284;53.520;10.248;2022-11-04T09:28:10;99701.69;;;14.04;89.02
2549;BME280;1284;53.520;10.248;2022-11-04T09:30:36;99716.09;;;14.38;88.71
2549;BME280;1284;53.520;10.248;2022-11-04T09:33:01;99710.97;;;14.47;86.96
2549;BME280;1284;53.520;10.248;2022-11-04T09:35:27;99717.94;;;14.44;86.04
2549;BME280;1284;53.520;10.248;2022-11-04T09:37:53;99718.25;;;14.50;85.84
2549;BME280;1284;53.520;10.248;2022-11-04T09:40:21;99718.16;;;14.61;85.39
2549;BME280;1284;53.520;10.248;2022-11-04T09:45:27;99720.13;;;14.57;85.16
2549;BME280;1284;53.520;10.248;2022-11-04T09:47:59;99713.16;;;14.56;85.02
2549;BME280;1284;53.520;10.248;2022-11-04T09:50:30;99728.03;;;14.78;84.49
2549;BME280;1284;53.520;10.248;2022-11-04T09:53:01;99746.16;;;14.81;84.41
2549;BME280;1284;53.520;10.248;2022-11-04T09:58:36;99738.69;;;15.22;82.69
2549;BME280;1284;53.520;10.248;2022-11-04T10:01:05;99739.50;;;15.19;82.19
2549;BME280;1284;53.520;10.248;2022-11-04T10:09:29;99753.25;;;15.05;82.02
2549;BME280;1284;53.520;10.248;2022-11-04T10:12:22;99748.81;;;15.18;82.50
2549;BME280;1284;53.520;10.248;2022-11-04T10:15:00;99751.00;;;15.00;82.22
2549;BME280;1284;53.520;10.248;2022-11-04T10:22:33;99734.22;;;14.78;82.61
2549;BME280;1284;53.520;10.248;2022-11-04T10:25:20;99736.69;;;14.66;82.75
2549;BME280;1284;53.520;10.248;2022-11-04T10:27:47;99731.56;;;14.71;82.78
2549;BME280;1284;53.520;10.248;2022-11-04T10:30:18;99719.31;;;14.63;83.39
2549;BME280;1284;53.520;10.248;2022-11-04T10:33:00;99729.63;;;14.72;83.29
2549;BME280;1284;53.520;10.248;2022-11-04T10:36:00;99721.34;;;14.86;82.12
2549;BME280;1284;53.520;10.248;2022-11-04T10:38:57;99729.22;;;14.77;82.02
2549;BME280;1284;53.520;10.248;2022-11-04T10:43:50;99733.53;;;15.01;81.85
2549;BME280;1284;53.520;10.248;2022-11-04T10:46:23;99732.38;;;15.02;81.69
2549;BME280;1284;53.520;10.248;2022-11-04T10:51:32;99730.41;;;15.06;81.89
2549;BME280;1284;53.520;10.248;2022-11-04T10:53:59;99730.28;;;15.13;81.29
2549;BME280;1284;53.520;10.248;2022-11-04T10:56:39;99738.59;;;14.99;80.74
2549;BME280;1284;53.520;10.248;2022-11-04T11:01:47;99744.28;;;15.11;80.73
2549;BME280;1284;53.520;10.248;2022-11-04T11:04:24;99757.72;;;15.18;80.41
2549;BME280;1284;53.520;10.248;2022-11-04T11:06:50;99750.53;;;15.05;80.06
2549;BME280;1284;53.520;10.248;2022-11-04T11:09:48;99756.78;;;15.02;81.03
2549;BME280;1284;53.520;10.248;2022-11-04T11:14:40;99771.47;;;15.04;80.94
2549;BME280;1284;53.520;10.248;2022-11-04T11:19:48;99777.72;;;15.01;80.41
2549;BME280;1284;53.520;10.248;2022-11-04T11:25:23;99809.75;;;15.10;79.37
2549;BME280;1284;53.520;10.248;2022-11-04T11:28:01;99820.31;;;15.01;79.94
2549;BME280;1284;53.520;10.248;2022-11-04T11:30:34;99817.50;;;15.08;80.33
2549;BME280;1284;53.520;10.248;2022-11-04T11:33:06;99815.53;;;15.12;80.25
2549;BME280;1284;53.520;10.248;2022-11-04T11:35:49;99806.50;;;15.22;80.31
2549;BME280;1284;53.520;10.248;2022-11-04T11:38:22;99814.53;;;15.32;80.24
2549;BME280;1284;53.520;10.248;2022-11-04T11:40:49;99819.06;;;15.39;78.81
2549;BME280;1284;53.520;10.248;2022-11-04T11:43:25;99812.53;;;15.36;79.68
2549;BME280;1284;53.520;10.248;2022-11-04T11:45:52;99815.00;;;15.58;79.11
2549;BME280;1284;53.520;10.248;2022-11-04T11:48:28;99809.50;;;15.61;78.97
2549;BME280;1284;53.520;10.248;2022-11-04T11:50:55;99809.16;;;15.59;77.98
2549;BME280;1284;53.520;10.248;2022-11-04T11:53:28;99809.47;;;15.65;77.58
2549;BME280;1284;53.520;10.248;2022-11-04T11:56:05;99806.31;;;15.70;77.86
2549;BME280;1284;53.520;10.248;2022-11-04T11:58:41;99810.91;;;15.73;78.35
2549;BME280;1284;53.520;10.248;2022-11-04T12:01:27;99805.16;;;15.67;77.92
2549;BME280;1284;53.520;10.248;2022-11-04T12:03:54;99811.81;;;15.63;78.07
2549;BME280;1284;53.520;10.248;2022-11-04T12:12:00;99806.91;;;15.81;77.33
2549;BME280;1284;53.520;10.248;2022-11-04T12:30:43;99819.66;;;15.57;77.21
2549;BME280;1284;53.520;10.248;2022-11-04T12:33:38;99825.97;;;15.47;77.21
2549;BME280;1284;53.520;10.248;2022-11-04T12:39:38;99821.03;;;15.69;76.49
2549;BME280;1284;53.520;10.248;2022-11-04T12:45:20;99830.72;;;15.96;76.02
2549;BME280;1284;53.520;10.248;2022-11-04T12:47:49;99822.41;;;15.80;76.04
2549;BME280;1284;53.520;10.248;2022-11-04T12:53:34;99835.53;;;15.85;75.62
2549;BME280;1284;53.520;10.248;2022-11-04T12:56:11;99844.56;;;15.79;76.13
2549;BME280;1284;53.520;10.248;2022-11-04T12:59:04;99840.50;;;15.90;76.05
2549;BME280;1284;53.520;10.248;2022-11-04T13:01:49;99853.31;;;15.90;76.57
2549;BME280;1284;53.520;10.248;2022-11-04T13:04:21;99860.78;;;15.82;77.23
2549;BME280;1284;53.520;10.248;2022-11-04T13:06:52;99864.22;;;15.86;77.39
2549;BME280;1284;53.520;10.248;2022-11-04T13:09:41;99854.81;;;15.94;77.20
2549;BME280;1284;53.520;10.248;2022-11-04T13:12:12;99859.41;;;15.97;76.43
2549;BME280;1284;53.520;10.248;2022-11-04T13:14:51;99853.91;;;16.01;75.34
2549;BME280;1284;53.520;10.248;2022-11-04T13:17:24;99850.47;;;15.97;75.15
2549;BME280;1284;53.520;10.248;2022-11-04T13:19:53;99869.47;;;16.00;75.24
2549;BME280;1284;53.520;10.248;2022-11-04T13:22:23;99864.69;;;16.08;74.99
2549;BME280;1284;53.520;10.248;2022-11-04T13:24:53;99866.69;;;16.04;75.79
2549;BME280;1284;53.520;10.248;2022-11-04T13:27:27;99871.28;;;16.07;74.69
2549;BME280;1284;53.520;10.248;2022-11-04T13:32:55;99884.88;;;16.07;74.41
2549;BME280;1284;53.520;10.248;2022-11-04T13:38:41;99888.94;;;15.95;75.27
2549;BME280;1284;53.520;10.248;2022-11-04T13:43:55;99904.78;;;16.00;74.49
2549;BME280;1284;53.520;10.248;2022-11-04T13:48:55;99905.59;;;15.97;74.10
2549;BME280;1284;53.520;10.248;2022-11-04T13:51:21;99916.84;;;15.96;74.13
2549;BME280;1284;53.520;10.248;2022-11-04T13:53:51;99922.25;;;15.99;74.41
2549;BME280;1284;53.520;10.248;2022-11-04T13:56:38;99921.88;;;15.97;73.78
2549;BME280;1284;53.520;10.248;2022-11-04T13:59:18;99911.53;;;15.89;74.42
2549;BME280;1284;53.520;10.248;2022-11-04T14:01:44;99922.41;;;15.89;74.62
2549;BME280;1284;53.520;10.248;2022-11-04T14:14:33;99940.59;;;15.58;77.27
2549;BME280;1284;53.520;10.248;2022-11-04T14:16:58;99939.81;;;15.61;77.05
2549;BME280;1284;53.520;10.248;2022-11-04T14:19:45;99943.56;;;15.71;76.96
2549;BME280;1284;53.520;10.248;2022-11-04T14:22:15;99943.00;;;15.53;77.16
2549;BME280;1284;53.520;10.248;2022-11-04T14:24:42;99932.88;;;15.57;77.60
2549;BME280;1284;53.520;10.248;2022-11-04T14:27:23;99938.28;;;15.57;77.54
2549;BME280;1284;53.520;10.248;2022-11-04T14:29:51;99943.81;;;15.50;77.93
2549;BME280;1284;53.520;10.248;2022-11-04T14:32:23;99939.91;;;15.54;77.67
2549;BME280;1284;53.520;10.248;2022-11-04T14:34:57;99945.84;;;15.42;78.59
2549;BME280;1284;53.520;10.248;2022-11-04T14:37:27;99948.47;;;15.49;78.30
2549;BME280;1284;53.520;10.248;2022-11-04T14:39:59;99951.88;;;15.57;78.23
2549;BME280;1284;53.520;10.248;2022-11-04T14:42:45;99957.63;;;15.62;77.76
2549;BME280;1284;53.520;10.248;2022-11-04T14:45:19;99953.75;;;15.63;78.08
2549;BME280;1284;53.520;10.248;2022-11-04T14:47:48;99954.47;;;15.67;77.55
2549;BME280;1284;53.520;10.248;2022-11-04T14:50:26;99956.88;;;15.62;77.62
2549;BME280;1284;53.520;10.248;2022-11-04T14:53:00;99967.88;;;15.48;77.79
2549;BME280;1284;53.520;10.248;2022-11-04T14:55:29;99961.25;;;15.49;78.19
2549;BME280;1284;53.520;10.248;2022-11-04T14:57:59;99973.75;;;15.43;78.28
2549;BME280;1284;53.520;10.248;2022-11-04T15:05:55;99983.38;;;15.47;78.52
2549;BME280;1284;53.520;10.248;2022-11-04T15:08:31;99987.56;;;15.55;78.29
2549;BME280;1284;53.520;10.248;2022-11-04T15:13:45;99996.41;;;15.63;78.15
2549;BME280;1284;53.520;10.248;2022-11-04T15:16:23;99996.34;;;15.66;77.66
2549;BME280;1284;53.520;10.248;2022-11-04T15:18:51;100001.03;;;15.66;77.59
2549;BME280;1284;53.520;10.248;2022-11-04T15:21:17;99996.41;;;15.63;77.26
2549;BME280;1284;53.520;10.248;2022-11-04T15:23:45;100002.56;;;15.67;76.65
2549;BME280;1284;53.520;10.248;2022-11-04T15:26:25;100012.13;;;15.37;76.64
2549;BME280;1284;53.520;10.248;2022-11-04T15:28:51;100013.31;;;15.36;77.16
2549;BME280;1284;53.520;10.248;2022-11-04T15:31:23;100015.31;;;15.32;78.03
2549;BME280;1284;53.520;10.248;2022-11-04T15:33:53;100021.91;;;15.28;79.17
2549;BME280;1284;53.520;10.248;2022-11-04T15:36:22;100026.91;;;15.33;79.36